createdAt,value
2023-04-08T00:01:50.784Z,5.43
2023-04-08T00:04:21.043Z,4.82
2023-04-08T00:06:50.822Z,5.32
2023-04-08T00:09:20.605Z,5.13
2023-04-08T00:11:50.509Z,5.70
2023-04-08T00:14:20.168Z,5.03
2023-04-08T00:16:52.537Z,5.18
2023-04-08T00:19:22.335Z,5.45
2023-04-08T00:21:52.007Z,5.60
2023-04-08T00:24:22.354Z,5.43
2023-04-08T00:26:52.068Z,5.82
2023-04-08T00:29:21.778Z,5.63
2023-04-08T00:31:54.423Z,5.07
2023-04-08T00:34:24.268Z,5.00
2023-04-08T00:36:53.942Z,5.45
2023-04-08T00:39:23.628Z,4.80
2023-04-08T00:41:53.360Z,5.38
2023-04-08T00:44:23.130Z,5.30
2023-04-08T00:46:55.466Z,5.53
2023-04-08T00:49:25.475Z,5.38
2023-04-08T00:51:56.506Z,6.40
2023-04-08T00:54:26.697Z,5.57
2023-04-08T00:56:57.088Z,5.93
2023-04-08T00:59:26.795Z,5.70
2023-04-08T01:02:06.937Z,6.13
2023-04-08T01:04:45.864Z,5.97
2023-04-08T01:07:20.322Z,6.03
2023-04-08T01:09:54.757Z,6.05
2023-04-08T01:12:30.088Z,5.97
2023-04-08T01:15:03.288Z,4.63
2023-04-08T01:17:36.887Z,6.28
2023-04-08T01:20:10.254Z,6.53
2023-04-08T01:22:49.092Z,6.15
2023-04-08T01:25:22.816Z,6.30
2023-04-08T01:27:57.798Z,6.43
2023-04-08T01:30:30.739Z,6.68
2023-04-08T01:33:02.546Z,6.38
2023-04-08T01:35:34.161Z,6.35
2023-04-08T01:38:05.908Z,6.25
2023-04-08T01:40:37.379Z,7.22
2023-04-08T01:43:12.656Z,6.28
2023-04-08T01:45:42.345Z,6.60
2023-04-08T01:48:13.139Z,6.57
2023-04-08T01:50:44.387Z,6.60
2023-04-08T01:53:16.260Z,5.72
2023-04-08T01:55:47.636Z,5.70
2023-04-08T01:58:24.126Z,5.65
2023-04-08T02:00:57.168Z,6.15
2023-04-08T02:03:28.866Z,5.80
2023-04-08T02:05:58.875Z,6.70
2023-04-08T02:08:31.285Z,6.05
2023-04-08T02:11:01.017Z,7.15
2023-04-08T02:13:35.286Z,6.63
2023-04-08T02:16:11.637Z,7.53
2023-04-08T02:18:46.422Z,7.45
2023-04-08T02:21:18.382Z,6.72
2023-04-08T02:23:53.449Z,6.80
2023-04-08T02:26:25.840Z,7.00
2023-04-08T02:29:00.558Z,7.55
2023-04-08T02:31:31.005Z,6.32
2023-04-08T02:34:00.981Z,7.18
2023-04-08T02:36:34.873Z,6.43
2023-04-08T02:39:06.461Z,7.30
2023-04-08T02:41:36.231Z,7.10
2023-04-08T02:44:08.509Z,6.97
2023-04-08T02:46:39.540Z,6.53
2023-04-08T02:49:09.230Z,6.55
2023-04-08T02:51:39.483Z,6.15
2023-04-08T02:54:09.120Z,6.13
2023-04-08T02:56:38.772Z,6.50
2023-04-08T02:59:11.104Z,6.90
2023-04-08T03:01:41.051Z,5.88
2023-04-08T03:04:10.711Z,6.68
2023-04-08T03:06:40.766Z,7.53
2023-04-08T03:09:10.532Z,6.25
2023-04-08T03:11:40.195Z,5.72
2023-04-08T03:14:12.407Z,6.28
2023-04-08T03:16:42.071Z,6.00
2023-04-08T03:19:11.803Z,6.25
2023-04-08T03:21:41.681Z,6.25
2023-04-08T03:24:11.369Z,6.20
2023-04-08T03:26:40.991Z,7.03
2023-04-08T03:29:13.166Z,6.68
2023-04-08T03:31:42.918Z,5.90
2023-04-08T03:34:12.624Z,6.22
2023-04-08T03:36:42.341Z,6.57
2023-04-08T03:39:12.096Z,5.93
2023-04-08T03:41:41.787Z,6.20
2023-04-08T03:44:14.010Z,6.18
2023-04-08T03:46:43.709Z,5.60
2023-04-08T03:49:13.368Z,6.13
2023-04-08T03:51:43.072Z,6.80
2023-04-08T03:54:12.706Z,6.45
2023-04-08T03:56:42.334Z,5.85
2023-04-08T03:59:14.871Z,6.03
2023-04-08T04:01:44.604Z,6.07
2023-04-08T04:04:14.439Z,7.38
2023-04-08T04:06:44.157Z,6.63
2023-04-08T04:09:15.382Z,6.82
2023-04-08T04:11:45.142Z,7.80
2023-04-08T04:14:17.447Z,7.47
2023-04-08T04:16:47.082Z,6.75
2023-04-08T04:19:17.920Z,6.95
2023-04-08T04:21:47.628Z,8.18
2023-04-08T04:24:17.278Z,8.00
2023-04-08T04:26:47.004Z,8.10
2023-04-08T04:29:19.207Z,7.50
2023-04-08T04:31:48.874Z,7.70
2023-04-08T04:34:18.524Z,9.15
2023-04-08T04:36:48.251Z,8.30
2023-04-08T04:39:17.882Z,8.52
2023-04-08T04:41:49.287Z,8.38
2023-04-08T04:44:21.517Z,8.48
2023-04-08T04:46:51.544Z,8.95
2023-04-08T04:49:21.368Z,9.15
2023-04-08T04:51:51.028Z,8.38
2023-04-08T04:54:20.658Z,10.63
2023-04-08T04:56:50.313Z,8.30
2023-04-08T04:59:22.538Z,10.63
2023-04-08T05:01:52.288Z,9.50
2023-04-08T05:04:22.100Z,9.20
2023-04-08T05:06:51.858Z,9.48
2023-04-08T05:09:21.559Z,10.13
2023-04-08T05:11:51.323Z,9.25
2023-04-08T05:14:23.584Z,8.55
2023-04-08T05:16:53.311Z,8.55
2023-04-08T05:19:22.940Z,9.95
2023-04-08T05:21:52.617Z,8.90
2023-04-08T05:24:22.257Z,8.75
2023-04-08T05:26:53.495Z,9.27
2023-04-08T05:29:26.594Z,8.00
2023-04-08T05:31:56.535Z,8.85
2023-04-08T05:34:26.194Z,8.20
2023-04-08T05:36:56.174Z,8.75
2023-04-08T05:39:25.961Z,9.48
2023-04-08T05:41:55.629Z,9.18
2023-04-08T05:44:27.901Z,8.20
2023-04-08T05:46:58.531Z,8.13
2023-04-08T05:49:28.469Z,7.90
2023-04-08T05:51:58.461Z,7.50
2023-04-08T05:54:28.320Z,7.85
2023-04-08T05:56:58.128Z,7.90
2023-04-08T05:59:30.444Z,7.50
2023-04-08T06:02:00.597Z,7.18
2023-04-08T06:04:30.408Z,7.68
2023-04-08T06:07:03.048Z,7.05
2023-04-08T06:09:32.857Z,6.57
2023-04-08T06:12:02.580Z,8.52
2023-04-08T06:14:34.892Z,7.75
2023-04-08T06:17:04.712Z,7.60
2023-04-08T06:19:34.611Z,8.15
2023-04-08T06:22:04.583Z,7.63
2023-04-08T06:24:34.294Z,7.38
2023-04-08T06:27:04.127Z,7.22
2023-04-08T06:29:36.675Z,8.27
2023-04-08T06:32:06.529Z,7.40
2023-04-08T06:34:36.249Z,7.85
2023-04-08T06:37:06.475Z,8.18
2023-04-08T06:39:36.748Z,7.45
2023-04-08T06:42:06.630Z,6.80
2023-04-08T06:45:08.083Z,7.28
2023-04-08T06:47:37.828Z,8.95
2023-04-08T06:50:08.726Z,7.22
2023-04-08T06:52:38.380Z,10.00
2023-04-08T06:55:09.041Z,7.85
2023-04-08T06:57:38.997Z,7.28
2023-04-08T07:00:13.126Z,7.78
2023-04-08T07:02:42.929Z,7.30
2023-04-08T07:05:12.664Z,6.88
2023-04-08T07:07:42.293Z,6.75
2023-04-08T07:10:13.071Z,7.05
2023-04-08T07:12:42.763Z,9.38
2023-04-08T07:15:15.223Z,6.60
2023-04-08T07:17:44.879Z,6.85
2023-04-08T07:20:16.639Z,6.68
2023-04-08T07:22:46.312Z,6.18
2023-04-08T07:25:16.054Z,7.15
2023-04-08T07:27:45.857Z,6.38
2023-04-08T07:30:18.315Z,6.80
2023-04-08T07:32:48.095Z,9.75
2023-04-08T07:35:24.195Z,10.40
2023-04-08T07:37:55.175Z,6.22
2023-04-08T07:40:24.902Z,6.22
2023-04-08T07:42:54.824Z,7.30
2023-04-08T07:45:27.029Z,8.23
2023-04-08T07:47:56.705Z,6.60
2023-04-08T07:50:26.634Z,6.50
2023-04-08T07:52:57.076Z,6.65
2023-04-08T07:55:26.781Z,6.55
2023-04-08T07:57:56.623Z,7.10
2023-04-08T08:00:30.954Z,5.90
2023-04-08T08:03:00.800Z,5.13
2023-04-08T08:05:31.018Z,6.57
2023-04-08T08:08:00.644Z,7.00
2023-04-08T08:10:30.429Z,6.85
2023-04-08T08:13:00.113Z,6.97
2023-04-08T08:15:32.410Z,30.45
2023-04-08T08:18:02.124Z,5.95
2023-04-08T08:20:31.974Z,6.00
2023-04-08T08:23:01.639Z,4.93
2023-04-08T08:25:31.493Z,5.15
2023-04-08T08:28:01.196Z,5.18
2023-04-08T08:30:34.104Z,8.40
2023-04-08T08:33:04.066Z,6.00
2023-04-08T08:35:33.812Z,6.18
2023-04-08T08:38:03.494Z,5.32
2023-04-08T08:40:33.289Z,5.90
2023-04-08T08:43:04.267Z,4.50
2023-04-08T08:45:36.592Z,4.88
2023-04-08T08:48:06.474Z,6.72
2023-04-08T08:50:36.285Z,5.45
2023-04-08T08:53:06.455Z,5.35
2023-04-08T08:58:11.656Z,6.00
2023-04-08T09:00:45.256Z,4.57
2023-04-08T09:03:23.360Z,4.47
2023-04-08T09:05:55.016Z,4.95
2023-04-08T09:08:32.367Z,5.00
2023-04-08T09:11:15.843Z,5.03
2023-04-08T09:13:46.557Z,5.40
2023-04-08T09:16:20.630Z,4.72
2023-04-08T09:18:53.240Z,4.63
2023-04-08T09:21:27.527Z,4.65
2023-04-08T09:23:57.205Z,5.22
2023-04-08T09:26:27.635Z,5.75
2023-04-08T09:29:11.027Z,5.88
2023-04-08T09:31:56.893Z,6.45
2023-04-08T09:34:27.812Z,6.88
2023-04-08T09:36:58.026Z,5.93
2023-04-08T09:39:27.811Z,5.95
2023-04-08T09:42:01.916Z,6.55
2023-04-08T09:44:32.806Z,5.90
2023-04-08T09:47:15.594Z,7.53
2023-04-08T09:49:52.851Z,7.50
2023-04-08T09:52:26.419Z,11.80
2023-04-08T09:54:58.683Z,11.07
2023-04-08T09:57:34.797Z,7.45
2023-04-08T10:00:10.542Z,7.07
2023-04-08T10:02:57.603Z,7.13
2023-04-08T10:05:28.401Z,8.00
2023-04-08T10:07:59.430Z,6.75
2023-04-08T10:10:29.808Z,7.30
2023-04-08T10:13:00.210Z,6.88
2023-04-08T10:15:31.492Z,7.10
2023-04-08T10:18:33.523Z,6.40
2023-04-08T10:21:06.250Z,5.35
2023-04-08T10:23:56.771Z,7.40
2023-04-08T10:26:37.394Z,6.30
2023-04-08T10:29:33.175Z,14.88
2023-04-08T10:32:03.760Z,26.08
2023-04-08T10:34:33.414Z,10.25
2023-04-08T10:37:06.720Z,9.73
2023-04-08T10:39:38.714Z,11.98
2023-04-08T10:42:12.471Z,6.38
2023-04-08T10:44:48.541Z,5.88
2023-04-08T10:47:18.646Z,6.22
2023-04-08T10:49:49.776Z,5.57
2023-04-08T10:52:23.618Z,7.28
2023-04-08T10:54:53.621Z,6.97
2023-04-08T10:57:27.425Z,13.82
2023-04-08T10:59:57.133Z,10.43
2023-04-08T11:02:35.886Z,8.57
2023-04-08T11:05:05.963Z,7.22
2023-04-08T11:07:43.120Z,6.43
2023-04-08T11:10:13.384Z,6.95
2023-04-08T11:12:43.030Z,7.05
2023-04-08T11:15:14.229Z,7.60
2023-04-08T11:17:44.999Z,9.60
2023-04-08T11:20:16.863Z,8.25
2023-04-08T11:22:50.240Z,9.90
2023-04-08T11:25:20.125Z,8.40
2023-04-08T11:27:50.615Z,11.07
2023-04-08T11:30:20.432Z,11.80
2023-04-08T11:32:50.265Z,9.68
2023-04-08T11:35:20.003Z,11.18
2023-04-08T11:37:52.478Z,11.48
2023-04-08T11:40:25.072Z,10.85
2023-04-08T11:42:55.621Z,9.38
2023-04-08T11:45:25.517Z,10.38
2023-04-08T11:47:55.309Z,9.35
2023-04-08T11:50:30.091Z,10.88
2023-04-08T11:53:02.469Z,10.25
2023-04-08T11:55:33.677Z,12.27
2023-04-08T11:58:07.758Z,10.82
2023-04-08T12:00:37.575Z,10.68
2023-04-08T12:03:07.558Z,10.40
2023-04-08T12:05:37.528Z,11.75
2023-04-08T12:08:09.855Z,10.80
2023-04-08T12:10:39.577Z,10.45
2023-04-08T12:13:09.479Z,11.57
2023-04-08T12:15:39.153Z,10.98
2023-04-08T12:18:09.093Z,11.35
2023-04-08T12:20:38.886Z,11.40
2023-04-08T12:23:11.289Z,9.93
2023-04-08T12:25:41.057Z,10.10
2023-04-08T12:28:11.740Z,11.50
2023-04-08T12:30:41.752Z,11.27
2023-04-08T12:33:11.420Z,11.80
2023-04-08T12:35:41.421Z,10.73
2023-04-08T12:38:13.691Z,11.60
2023-04-08T12:40:43.328Z,11.23
2023-04-08T12:43:12.983Z,10.45
2023-04-08T12:45:42.626Z,10.90
2023-04-08T12:48:12.604Z,10.40
2023-04-08T12:50:42.326Z,10.20
2023-04-08T12:53:14.698Z,10.95
2023-04-08T12:55:44.842Z,12.45
2023-04-08T12:58:17.056Z,11.23
2023-04-08T13:00:48.013Z,11.25
2023-04-08T13:03:18.166Z,11.85
2023-04-08T13:05:48.735Z,11.38
2023-04-08T13:08:20.997Z,11.55
2023-04-08T13:10:50.771Z,11.00
2023-04-08T13:13:20.478Z,12.05
2023-04-08T13:15:50.148Z,13.70
2023-04-08T13:18:19.874Z,14.23
2023-04-08T13:20:49.710Z,14.43
2023-04-08T13:23:22.221Z,11.90
2023-04-08T13:25:52.158Z,13.30
2023-04-08T13:28:21.917Z,12.25
2023-04-08T13:30:51.567Z,15.45
2023-04-08T13:33:22.335Z,12.80
2023-04-08T13:35:52.051Z,13.85
2023-04-08T13:38:24.404Z,18.00
2023-04-08T13:40:54.347Z,13.68
2023-04-08T13:43:24.451Z,13.88
2023-04-08T13:45:54.192Z,15.48
2023-04-08T13:48:23.954Z,18.02
2023-04-08T13:50:53.865Z,14.70
2023-04-08T13:53:26.362Z,16.55
2023-04-08T13:55:59.221Z,17.08
2023-04-08T13:58:28.951Z,14.65
2023-04-08T14:00:58.661Z,16.65
2023-04-08T14:03:28.367Z,17.20
2023-04-08T14:06:01.104Z,20.67
2023-04-08T14:08:36.540Z,17.15
2023-04-08T14:11:06.240Z,17.13
2023-04-08T14:13:35.937Z,17.65
2023-04-08T14:16:05.570Z,15.20
2023-04-08T14:18:36.613Z,20.73
2023-04-08T14:21:07.552Z,16.83
2023-04-08T14:23:39.746Z,14.90
2023-04-08T14:26:09.430Z,15.85
2023-04-08T14:28:39.380Z,17.73
2023-04-08T14:31:09.129Z,17.38
2023-04-08T14:33:39.382Z,17.85
2023-04-08T14:36:09.749Z,14.77
2023-04-08T14:38:42.070Z,14.20
2023-04-08T14:41:11.806Z,13.75
2023-04-08T14:43:41.487Z,13.55
2023-04-08T14:46:11.173Z,17.83
2023-04-08T14:48:40.929Z,14.02
2023-04-08T14:51:10.730Z,13.88
2023-04-08T14:53:43.015Z,17.08
2023-04-08T14:56:12.725Z,14.93
2023-04-08T14:58:42.350Z,16.52
2023-04-08T15:01:12.182Z,13.93
2023-04-08T15:03:42.039Z,15.27
2023-04-08T15:06:16.996Z,14.35
2023-04-08T15:08:49.477Z,12.45
2023-04-08T15:11:19.626Z,14.93
2023-04-08T15:13:49.605Z,15.52
2023-04-08T15:16:19.423Z,14.25
2023-04-08T15:18:49.419Z,15.00
2023-04-08T15:21:19.289Z,15.07
2023-04-08T15:23:51.777Z,14.10
2023-04-08T15:26:21.629Z,14.57
2023-04-08T15:28:52.099Z,14.48
2023-04-08T15:31:22.027Z,15.73
2023-04-08T15:33:52.475Z,14.95
2023-04-08T15:36:22.446Z,14.75
2023-04-08T15:38:54.733Z,14.10
2023-04-08T15:41:24.488Z,15.43
2023-04-08T15:43:55.132Z,14.73
2023-04-08T15:46:24.784Z,13.77
2023-04-08T15:48:54.720Z,14.07
2023-04-08T15:51:24.581Z,14.90
2023-04-08T15:53:57.591Z,15.70
2023-04-08T15:56:29.557Z,13.82
2023-04-08T15:58:59.375Z,14.63
2023-04-08T16:01:29.100Z,16.73
2023-04-08T16:03:58.853Z,14.93
2023-04-08T16:06:28.701Z,17.90
2023-04-08T16:09:01.281Z,31.73
2023-04-08T16:11:31.283Z,14.43
2023-04-08T16:14:01.510Z,16.23
2023-04-08T16:16:31.912Z,17.60
2023-04-08T16:19:02.405Z,24.77
2023-04-08T16:21:32.139Z,14.00
2023-04-08T16:24:05.331Z,13.90
2023-04-08T16:26:35.358Z,14.25
2023-04-08T16:29:05.051Z,15.75
2023-04-08T16:31:36.849Z,14.65
2023-04-08T16:34:07.297Z,17.83
2023-04-08T16:36:37.120Z,15.05
2023-04-08T16:39:09.704Z,14.82
2023-04-08T16:41:39.526Z,13.15
2023-04-08T16:44:09.303Z,13.65
2023-04-08T16:46:39.039Z,13.55
2023-04-08T16:49:08.842Z,14.98
2023-04-08T16:51:38.471Z,13.65
2023-04-08T16:54:10.661Z,12.82
2023-04-08T16:56:44.471Z,13.32
2023-04-08T16:59:14.441Z,14.02
2023-04-08T17:01:44.116Z,13.88
2023-04-08T17:04:13.975Z,13.27
2023-04-08T17:06:44.266Z,13.63
2023-04-08T17:09:16.552Z,13.05
2023-04-08T17:11:46.195Z,13.65
2023-04-08T17:14:16.218Z,14.48
2023-04-08T17:16:46.006Z,14.02
2023-04-08T17:19:15.825Z,17.08
2023-04-08T17:21:45.643Z,17.70
2023-04-08T17:24:17.879Z,16.67
2023-04-08T17:26:48.183Z,15.93
2023-04-08T17:29:17.850Z,14.90
2023-04-08T17:31:47.617Z,14.23
2023-04-08T17:34:17.316Z,13.65
2023-04-08T17:36:47.317Z,15.77
2023-04-08T17:39:19.683Z,16.02
2023-04-08T17:41:49.362Z,16.77
2023-04-08T17:44:19.108Z,15.68
2023-04-08T17:46:48.834Z,14.05
2023-04-08T17:49:18.735Z,15.32
2023-04-08T17:51:48.360Z,13.55
2023-04-08T17:54:21.122Z,14.95
2023-04-08T17:56:50.834Z,15.88
2023-04-08T17:59:20.550Z,14.73
2023-04-08T18:02:01.415Z,15.20
2023-04-08T18:04:31.360Z,14.45
2023-04-08T18:07:04.032Z,14.55
2023-04-08T18:09:33.738Z,13.40
2023-04-08T18:12:03.450Z,15.02
2023-04-08T18:14:33.256Z,14.40
2023-04-08T18:17:05.542Z,13.88
2023-04-08T18:19:35.484Z,14.10
2023-04-08T18:22:05.145Z,14.00
2023-04-08T18:24:34.779Z,12.52
2023-04-08T18:27:05.113Z,13.80
2023-04-08T18:29:35.011Z,13.20
2023-04-08T18:32:07.960Z,12.13
2023-04-08T18:34:39.049Z,13.35
2023-04-08T18:37:08.932Z,17.10
2023-04-08T18:39:42.492Z,15.73
2023-04-08T18:42:12.138Z,12.77
2023-04-08T18:44:42.897Z,13.07
2023-04-08T18:47:15.209Z,15.90
2023-04-08T18:49:44.900Z,17.45
2023-04-08T18:52:14.659Z,16.88
2023-04-08T18:54:44.437Z,17.05
2023-04-08T18:57:14.112Z,14.50
2023-04-08T18:59:43.781Z,15.20
2023-04-08T19:02:16.535Z,14.80
2023-04-08T19:04:46.338Z,16.92
2023-04-08T19:07:17.234Z,20.20
2023-04-08T19:09:46.932Z,21.17
2023-04-08T19:12:16.635Z,19.75
2023-04-08T19:14:46.418Z,17.58
2023-04-08T19:17:18.669Z,17.42
2023-04-08T19:19:48.360Z,16.58
2023-04-08T19:22:18.058Z,16.98
2023-04-08T19:24:47.871Z,15.95
2023-04-08T19:27:17.511Z,15.40
2023-04-08T19:29:47.204Z,14.40
2023-04-08T19:32:19.660Z,18.35
2023-04-08T19:34:49.388Z,22.23
2023-04-08T19:37:19.205Z,25.17
2023-04-08T19:39:48.938Z,16.15
2023-04-08T19:42:19.406Z,19.48
2023-04-08T19:44:49.972Z,17.65
2023-04-08T19:47:22.257Z,22.25
2023-04-08T19:49:51.963Z,29.98
2023-04-08T19:52:21.656Z,39.20
2023-04-08T19:54:53.320Z,39.28
2023-04-08T19:57:23.204Z,83.43
2023-04-08T19:59:55.784Z,81.30
2023-04-08T20:02:28.221Z,23.55
2023-04-08T20:04:57.925Z,18.90
2023-04-08T20:07:27.655Z,21.02
2023-04-08T20:09:57.301Z,17.80
2023-04-08T20:12:27.200Z,18.63
2023-04-08T20:14:56.942Z,20.38
2023-04-08T20:17:29.700Z,19.90
2023-04-08T20:19:59.341Z,24.17
2023-04-08T20:22:29.549Z,21.17
2023-04-08T20:25:00.410Z,22.55
2023-04-08T20:27:30.521Z,21.30
2023-04-08T20:30:00.977Z,19.52
2023-04-08T20:32:33.619Z,20.00
2023-04-08T20:35:03.303Z,17.70
2023-04-08T20:37:33.351Z,26.20
2023-04-08T20:40:04.138Z,31.05
2023-04-08T20:42:33.766Z,28.95
2023-04-08T20:45:03.971Z,26.23
2023-04-08T20:47:36.320Z,31.00
2023-04-08T20:50:06.411Z,27.35
2023-04-08T20:52:36.225Z,28.65
2023-04-08T20:55:05.961Z,26.00
2023-04-08T20:57:35.809Z,24.00
2023-04-08T21:00:05.892Z,21.35
2023-04-08T21:02:38.365Z,29.98
2023-04-08T21:05:08.253Z,24.27
2023-04-08T21:07:39.109Z,24.65
2023-04-08T21:10:10.805Z,28.25
2023-04-08T21:12:40.537Z,24.90
2023-04-08T21:15:11.536Z,19.23
2023-04-08T21:17:43.807Z,26.38
2023-04-08T21:20:15.193Z,29.98
2023-04-08T21:22:44.964Z,26.13
2023-04-08T21:25:14.898Z,26.70
2023-04-08T21:27:44.545Z,25.33
2023-04-08T21:30:16.931Z,22.58
2023-04-08T21:32:49.361Z,20.23
2023-04-08T21:35:19.039Z,20.27
2023-04-08T21:37:48.682Z,23.90
2023-04-08T21:40:18.471Z,18.45
2023-04-08T21:42:48.171Z,19.13
2023-04-08T21:45:18.091Z,17.52
2023-04-08T21:47:50.943Z,18.40
2023-04-08T21:50:20.929Z,19.02
2023-04-08T21:52:50.798Z,18.23
2023-04-08T21:55:20.499Z,20.13
2023-04-08T21:57:50.213Z,18.48
2023-04-08T22:00:19.943Z,17.30
2023-04-08T22:02:52.633Z,17.10
2023-04-08T22:05:23.500Z,19.95
2023-04-08T22:07:53.145Z,20.73
2023-04-08T22:10:23.074Z,21.08
2023-04-08T22:12:52.722Z,20.60
2023-04-08T22:15:22.620Z,18.52
2023-04-08T22:17:54.849Z,18.75
2023-04-08T22:20:24.550Z,18.52
2023-04-08T22:22:54.286Z,20.05
2023-04-08T22:25:24.089Z,19.63
2023-04-08T22:27:53.824Z,19.35
2023-04-08T22:30:24.175Z,20.92
2023-04-08T22:32:56.786Z,20.38
2023-04-08T22:35:26.515Z,20.08
2023-04-08T22:37:56.334Z,19.02
2023-04-08T22:40:26.565Z,18.50
2023-04-08T22:42:56.300Z,19.45
2023-04-08T22:45:26.326Z,19.25
2023-04-08T22:47:58.602Z,19.05
2023-04-08T22:50:28.749Z,17.30
2023-04-08T22:52:58.384Z,18.00
2023-04-08T22:55:28.039Z,17.00
2023-04-08T22:57:57.719Z,16.70
2023-04-08T23:00:27.482Z,17.05
2023-04-08T23:03:04.304Z,16.52
2023-04-08T23:05:34.118Z,16.48
2023-04-08T23:08:03.759Z,16.10
2023-04-08T23:10:33.434Z,17.45
2023-04-08T23:13:03.410Z,16.75
2023-04-08T23:15:33.143Z,20.63
2023-04-08T23:18:06.000Z,20.50
2023-04-08T23:20:35.761Z,21.23
2023-04-08T23:23:05.663Z,20.25
2023-04-08T23:25:37.997Z,17.65
2023-04-08T23:28:08.099Z,18.17
2023-04-08T23:30:39.066Z,18.15
2023-04-08T23:33:11.554Z,16.98
2023-04-08T23:35:42.174Z,17.25
2023-04-08T23:38:11.908Z,17.05
2023-04-08T23:40:41.607Z,17.48
2023-04-08T23:43:11.297Z,18.27
2023-04-08T23:45:40.936Z,17.05
2023-04-08T23:48:13.187Z,17.67
2023-04-08T23:50:42.822Z,17.15
2023-04-08T23:53:12.460Z,17.15
2023-04-08T23:55:42.110Z,18.25
2023-04-08T23:58:11.740Z,17.17
